createdAt,value
2022-12-08T00:01:32.811Z,1.33
2022-12-08T00:03:59.182Z,0.00
2022-12-08T00:06:25.496Z,3.00
2022-12-08T00:08:51.807Z,3.67
2022-12-08T00:11:18.182Z,3.33
2022-12-08T00:13:44.502Z,2.00
2022-12-08T00:16:10.873Z,2.00
2022-12-08T00:18:37.198Z,1.33
2022-12-08T00:21:03.514Z,1.67
2022-12-08T00:23:29.857Z,1.33
2022-12-08T00:25:56.192Z,2.00
2022-12-08T00:28:22.560Z,3.00
2022-12-08T00:30:48.899Z,2.00
2022-12-08T00:33:15.212Z,1.67
2022-12-08T00:35:43.225Z,3.00
2022-12-08T00:38:09.827Z,1.33
2022-12-08T00:40:36.181Z,3.00
2022-12-08T00:43:02.500Z,1.33
2022-12-08T00:45:28.878Z,2.00
2022-12-08T00:47:55.249Z,2.00
2022-12-08T00:50:21.568Z,1.33
2022-12-08T00:52:47.871Z,2.00
2022-12-08T00:55:14.149Z,0.67
2022-12-08T00:57:40.511Z,1.33
2022-12-08T01:00:07.009Z,1.33
2022-12-08T01:02:33.486Z,1.33
2022-12-08T01:04:59.825Z,2.00
2022-12-08T01:07:28.924Z,0.83
2022-12-08T01:09:58.061Z,0.67
2022-12-08T01:12:24.354Z,1.33
2022-12-08T01:14:55.846Z,0.83
2022-12-08T01:17:27.109Z,0.67
2022-12-08T01:19:56.205Z,0.67
2022-12-08T01:22:25.318Z,1.00
2022-12-08T01:24:54.406Z,0.50
2022-12-08T01:27:23.529Z,1.00
2022-12-08T01:29:49.848Z,1.33
2022-12-08T01:32:18.958Z,0.67
2022-12-08T01:34:48.057Z,1.00
2022-12-08T01:37:14.418Z,1.33
2022-12-08T01:39:40.700Z,0.33
2022-12-08T01:42:06.993Z,0.33
2022-12-08T01:44:36.116Z,1.33
2022-12-08T01:47:05.230Z,1.00
2022-12-08T01:49:31.573Z,0.67
2022-12-08T01:52:00.666Z,1.17
2022-12-08T01:54:29.763Z,0.33
2022-12-08T01:56:56.072Z,1.00
2022-12-08T01:59:25.175Z,0.00
2022-12-08T02:01:51.512Z,0.00
2022-12-08T02:04:17.909Z,1.00
2022-12-08T02:06:44.209Z,1.00
2022-12-08T02:09:13.295Z,1.00
2022-12-08T02:11:42.430Z,2.50
2022-12-08T02:14:11.524Z,0.00
2022-12-08T02:16:40.621Z,0.33
2022-12-08T02:19:30.221Z,0.33
2022-12-08T02:21:53.191Z,0.33
2022-12-08T02:24:22.314Z,1.00
2022-12-08T02:26:51.368Z,0.50
2022-12-08T02:29:17.662Z,0.33
2022-12-08T02:31:46.746Z,0.33
2022-12-08T02:34:13.028Z,1.00
2022-12-08T02:36:42.135Z,0.00
2022-12-08T02:39:08.424Z,0.00
2022-12-08T02:41:34.708Z,0.33
2022-12-08T02:44:03.829Z,0.17
2022-12-08T02:46:30.184Z,0.00
2022-12-08T02:48:59.326Z,0.33
2022-12-08T02:51:25.602Z,0.00
2022-12-08T02:53:54.692Z,0.67
2022-12-08T02:56:23.791Z,0.67
2022-12-08T02:58:52.934Z,1.33
2022-12-08T03:01:19.276Z,0.00
2022-12-08T03:03:48.469Z,0.00
2022-12-08T03:06:17.597Z,0.00
2022-12-08T03:08:43.872Z,1.00
2022-12-08T03:11:10.172Z,0.33
2022-12-08T03:13:39.268Z,0.50
2022-12-08T03:16:05.611Z,0.00
2022-12-08T03:18:34.737Z,1.00
2022-12-08T03:21:03.851Z,0.33
2022-12-08T03:23:32.957Z,1.00
2022-12-08T03:26:02.077Z,1.00
2022-12-08T03:28:31.181Z,1.00
2022-12-08T03:30:57.835Z,1.00
2022-12-08T03:33:24.241Z,0.00
2022-12-08T03:35:53.357Z,0.33
2022-12-08T03:38:22.449Z,0.67
2022-12-08T03:40:51.546Z,0.00
2022-12-08T03:43:17.858Z,0.00
2022-12-08T03:45:44.179Z,0.33
2022-12-08T03:48:10.486Z,1.00
2022-12-08T03:50:36.797Z,0.33
2022-12-08T03:53:05.912Z,1.00
2022-12-08T03:55:32.257Z,0.00
2022-12-08T03:58:01.354Z,0.50
2022-12-08T04:00:27.694Z,0.67
2022-12-08T04:02:56.858Z,0.67
2022-12-08T04:05:25.978Z,0.50
2022-12-08T04:07:52.313Z,0.00
2022-12-08T04:10:18.627Z,1.00
2022-12-08T04:12:44.954Z,0.00
2022-12-08T04:15:11.253Z,0.33
2022-12-08T04:17:37.534Z,0.67
2022-12-08T04:20:04.211Z,1.00
2022-12-08T04:22:30.737Z,0.33
2022-12-08T04:25:00.127Z,1.00
2022-12-08T04:27:26.411Z,0.33
2022-12-08T04:29:55.512Z,0.50
2022-12-08T04:32:24.648Z,1.00
2022-12-08T04:34:53.746Z,1.33
2022-12-08T04:37:20.057Z,0.33
2022-12-08T04:39:49.180Z,0.17
2022-12-08T04:42:15.471Z,1.00
2022-12-08T04:44:44.629Z,1.00
2022-12-08T04:47:10.992Z,2.00
2022-12-08T04:49:40.127Z,0.67
2022-12-08T04:52:06.488Z,1.33
2022-12-08T04:54:35.583Z,0.50
2022-12-08T04:57:04.681Z,1.00
2022-12-08T04:59:30.993Z,1.33
2022-12-08T05:02:00.204Z,0.50
2022-12-08T05:04:29.410Z,0.00
2022-12-08T05:06:58.494Z,1.00
2022-12-08T05:09:24.791Z,1.00
2022-12-08T05:11:51.114Z,2.00
2022-12-08T05:14:17.428Z,0.67
2022-12-08T05:16:43.792Z,2.00
2022-12-08T05:19:10.329Z,0.33
2022-12-08T05:21:36.698Z,1.67
2022-12-08T05:24:02.989Z,1.00
2022-12-08T05:26:29.279Z,1.00
2022-12-08T05:28:58.394Z,0.00
2022-12-08T05:31:24.772Z,0.33
2022-12-08T05:33:51.130Z,0.00
2022-12-08T05:36:17.443Z,0.33
2022-12-08T05:38:43.739Z,2.33
2022-12-08T05:41:10.033Z,1.67
2022-12-08T05:43:39.184Z,1.17
2022-12-08T05:46:05.589Z,0.33
2022-12-08T05:48:31.962Z,3.00
2022-12-08T05:50:58.338Z,2.00
2022-12-08T05:53:24.636Z,1.33
2022-12-08T05:55:50.962Z,1.33
2022-12-08T05:58:17.368Z,1.33
2022-12-08T06:00:43.676Z,2.00
2022-12-08T06:03:09.995Z,2.00
2022-12-08T06:05:36.365Z,2.00
2022-12-08T06:08:02.736Z,2.00
2022-12-08T06:10:29.188Z,1.67
2022-12-08T06:12:55.510Z,2.00
2022-12-08T06:15:21.852Z,4.00
2022-12-08T06:17:51.018Z,2.00
2022-12-08T06:20:17.323Z,2.00
2022-12-08T06:22:43.657Z,3.00
2022-12-08T06:25:10.406Z,2.33
2022-12-08T06:27:36.798Z,0.67
2022-12-08T06:30:06.239Z,1.17
2022-12-08T06:32:32.840Z,3.00
2022-12-08T06:34:59.189Z,0.67
2022-12-08T06:37:25.513Z,4.00
2022-12-08T06:39:51.822Z,5.00
2022-12-08T06:42:18.159Z,3.00
2022-12-08T06:44:44.491Z,4.67
2022-12-08T06:47:10.887Z,3.00
2022-12-08T06:49:37.202Z,5.00
2022-12-08T06:52:03.537Z,3.00
2022-12-08T06:54:30.954Z,59.67
2022-12-08T06:56:58.359Z,25.67
2022-12-08T06:59:24.876Z,27.00
2022-12-08T07:01:52.242Z,28.50
2022-12-08T07:04:19.633Z,18.00
2022-12-08T07:06:46.171Z,25.50
2022-12-08T07:09:12.604Z,20.00
2022-12-08T07:11:39.367Z,22.00
2022-12-08T07:14:06.929Z,19.33
2022-12-08T07:16:34.735Z,20.00
2022-12-08T07:19:02.187Z,16.00
2022-12-08T07:21:28.947Z,15.00
2022-12-08T07:23:58.036Z,15.33
2022-12-08T07:26:27.615Z,15.00
2022-12-08T07:28:54.910Z,15.67
2022-12-08T07:31:21.565Z,15.50
2022-12-08T07:33:48.927Z,17.67
2022-12-08T07:36:17.226Z,15.00
2022-12-08T07:38:43.676Z,14.00
2022-12-08T07:41:10.146Z,42.50
2022-12-08T07:43:36.617Z,26.00
2022-12-08T07:46:03.220Z,20.00
2022-12-08T07:48:29.747Z,19.00
2022-12-08T07:50:57.050Z,17.67
2022-12-08T07:53:24.293Z,14.33
2022-12-08T07:55:51.596Z,18.33
2022-12-08T07:58:19.024Z,17.33
2022-12-08T08:00:45.568Z,18.00
2022-12-08T08:03:14.026Z,15.80
2022-12-08T08:05:41.340Z,14.67
2022-12-08T08:08:08.618Z,14.00
2022-12-08T08:10:35.091Z,13.50
2022-12-08T08:13:04.361Z,13.00
2022-12-08T08:15:32.787Z,16.40
2022-12-08T08:18:01.258Z,18.40
2022-12-08T08:20:27.755Z,43.00
2022-12-08T08:22:54.241Z,50.00
2022-12-08T08:25:20.707Z,48.50
2022-12-08T08:27:48.092Z,43.00
2022-12-08T08:30:20.272Z,39.00
2022-12-08T08:32:47.325Z,36.00
2022-12-08T08:35:14.705Z,32.50
2022-12-08T08:37:44.323Z,34.00
2022-12-08T08:40:14.927Z,33.50
2022-12-08T08:42:41.437Z,29.00
2022-12-08T08:45:07.918Z,27.00
2022-12-08T08:47:34.397Z,28.00
2022-12-08T08:50:00.930Z,24.00
2022-12-08T08:52:28.236Z,20.33
2022-12-08T08:54:54.652Z,22.00
2022-12-08T08:57:25.517Z,19.67
2022-12-08T08:59:52.579Z,18.00
2022-12-08T09:02:19.152Z,15.00
2022-12-08T09:04:46.641Z,17.33
2022-12-08T09:07:13.903Z,16.67
2022-12-08T09:09:40.328Z,16.50
2022-12-08T09:12:06.869Z,16.00
2022-12-08T09:14:34.125Z,16.00
2022-12-08T09:17:00.593Z,15.00
2022-12-08T09:19:27.081Z,15.00
2022-12-08T09:21:55.394Z,16.20
2022-12-08T09:24:22.758Z,30.00
2022-12-08T09:26:50.165Z,34.00
2022-12-08T09:29:16.656Z,32.50
2022-12-08T09:31:43.186Z,31.00
2022-12-08T09:34:09.842Z,28.00
2022-12-08T09:36:36.299Z,27.50
2022-12-08T09:39:02.751Z,29.50
2022-12-08T09:41:34.012Z,24.00
2022-12-08T09:44:04.251Z,25.00
2022-12-08T09:46:31.754Z,22.33
2022-12-08T09:48:58.286Z,26.00
2022-12-08T09:51:24.753Z,24.50
2022-12-08T09:53:51.377Z,25.00
2022-12-08T09:56:17.982Z,17.00
2022-12-08T09:58:44.496Z,20.50
2022-12-08T10:01:10.931Z,21.00
2022-12-08T10:03:37.776Z,20.50
2022-12-08T10:06:05.144Z,18.67
2022-12-08T10:08:32.582Z,17.67
2022-12-08T10:10:59.064Z,16.50
2022-12-08T10:13:25.498Z,18.00
2022-12-08T10:15:52.884Z,15.33
2022-12-08T10:18:20.192Z,16.33
2022-12-08T10:20:47.436Z,13.00
2022-12-08T10:23:15.724Z,12.40
2022-12-08T10:25:42.140Z,14.00
2022-12-08T10:28:08.592Z,11.00
2022-12-08T10:30:35.010Z,12.00
2022-12-08T10:33:01.511Z,9.00
2022-12-08T10:35:28.754Z,9.25
2022-12-08T10:37:55.157Z,10.00
2022-12-08T10:40:21.561Z,11.50
2022-12-08T10:42:47.953Z,9.50
2022-12-08T10:45:14.388Z,13.00
2022-12-08T10:47:44.791Z,12.25
2022-12-08T10:50:11.690Z,11.50
2022-12-08T10:52:38.030Z,8.50
2022-12-08T10:55:04.413Z,8.33
2022-12-08T10:57:30.810Z,11.50
2022-12-08T10:59:59.024Z,9.60
2022-12-08T11:02:25.575Z,13.00
2022-12-08T11:04:52.163Z,12.50
2022-12-08T11:07:19.403Z,10.75
2022-12-08T11:09:45.818Z,11.00
2022-12-08T11:12:12.302Z,12.00
2022-12-08T11:14:40.560Z,11.20
2022-12-08T11:17:07.068Z,11.00
2022-12-08T11:19:33.522Z,13.00
2022-12-08T11:22:00.003Z,11.00
2022-12-08T11:24:26.435Z,13.50
2022-12-08T11:26:52.898Z,10.00
2022-12-08T11:29:21.227Z,14.20
2022-12-08T11:31:51.194Z,14.71
2022-12-08T11:34:17.644Z,13.00
2022-12-08T11:36:45.944Z,15.00
2022-12-08T11:39:14.274Z,11.60
2022-12-08T11:41:40.769Z,15.00
2022-12-08T11:44:08.061Z,16.33
2022-12-08T11:46:34.562Z,13.50
2022-12-08T11:49:06.423Z,14.67
2022-12-08T11:51:34.323Z,15.33
2022-12-08T11:54:00.801Z,10.50
2022-12-08T11:56:27.241Z,15.00
2022-12-08T11:58:53.723Z,12.00
2022-12-08T12:01:20.200Z,15.00
2022-12-08T12:03:47.503Z,15.67
2022-12-08T12:06:37.756Z,14.00
2022-12-08T12:09:01.196Z,15.25
2022-12-08T12:11:28.484Z,16.33
2022-12-08T12:13:54.942Z,15.00
2022-12-08T12:16:22.352Z,16.67
2022-12-08T12:18:48.770Z,17.50
2022-12-08T12:21:15.332Z,16.00
2022-12-08T12:23:42.582Z,15.67
2022-12-08T12:26:09.832Z,16.33
2022-12-08T12:28:37.093Z,17.33
2022-12-08T12:31:04.393Z,17.33
2022-12-08T12:33:31.693Z,16.33
2022-12-08T12:35:58.095Z,15.50
2022-12-08T12:38:25.417Z,16.67
2022-12-08T12:40:52.624Z,15.33
2022-12-08T12:43:19.100Z,15.00
2022-12-08T12:45:46.337Z,15.33
2022-12-08T12:48:12.821Z,14.50
2022-12-08T12:50:40.086Z,16.00
2022-12-08T12:53:12.355Z,15.00
2022-12-08T12:55:40.308Z,16.00
2022-12-08T12:58:06.802Z,15.00
2022-12-08T13:00:34.073Z,16.00
2022-12-08T13:03:04.060Z,16.43
2022-12-08T13:05:31.432Z,16.00
2022-12-08T13:07:59.813Z,12.60
2022-12-08T13:10:27.079Z,15.67
2022-12-08T13:12:53.496Z,16.50
2022-12-08T13:15:20.750Z,14.67
2022-12-08T13:17:47.259Z,12.50
2022-12-08T13:20:14.517Z,15.33
2022-12-08T13:22:40.934Z,13.50
2022-12-08T13:25:07.403Z,12.50
2022-12-08T13:27:33.808Z,17.50
2022-12-08T13:30:01.096Z,16.00
2022-12-08T13:32:39.013Z,18.00
2022-12-08T13:35:16.203Z,15.67
2022-12-08T13:37:53.866Z,16.80
2022-12-08T13:40:21.486Z,16.00
2022-12-08T13:42:49.071Z,17.00
2022-12-08T13:45:25.559Z,15.00
2022-12-08T13:48:21.500Z,12.50
2022-12-08T13:52:37.068Z,15.50
2022-12-08T13:59:03.094Z,14.00
2022-12-08T14:01:29.578Z,4.00
2022-12-08T14:06:44.305Z,18.33
2022-12-08T14:09:11.743Z,19.33
2022-12-08T14:11:39.223Z,19.33
2022-12-08T14:14:06.579Z,21.00
2022-12-08T14:16:33.046Z,16.00
2022-12-08T14:18:59.575Z,23.00
2022-12-08T14:21:27.122Z,18.00
2022-12-08T14:23:57.340Z,17.33
2022-12-08T14:26:25.632Z,13.60
2022-12-08T14:28:52.997Z,17.67
2022-12-08T14:31:20.320Z,15.33
2022-12-08T14:33:49.365Z,20.00
2022-12-08T14:36:20.605Z,18.67
2022-12-08T14:38:47.880Z,18.00
2022-12-08T14:41:14.323Z,20.50
2022-12-08T14:43:40.807Z,28.00
2022-12-08T14:46:08.292Z,38.00
2022-12-08T14:48:34.846Z,44.00
2022-12-08T14:51:02.262Z,42.67
2022-12-08T14:53:28.788Z,28.50
2022-12-08T14:55:55.287Z,29.50
2022-12-08T14:58:21.795Z,28.50
2022-12-08T15:00:48.271Z,25.00
2022-12-08T15:03:15.664Z,23.50
2022-12-08T15:05:43.056Z,23.33
2022-12-08T15:08:09.559Z,23.50
2022-12-08T15:10:36.074Z,24.50
2022-12-08T15:13:03.493Z,21.33
2022-12-08T15:15:30.875Z,23.67
2022-12-08T15:17:57.332Z,18.00
2022-12-08T15:20:23.756Z,18.50
2022-12-08T15:22:51.193Z,21.33
2022-12-08T15:25:17.728Z,22.00
2022-12-08T15:27:50.578Z,17.00
2022-12-08T15:30:18.299Z,20.67
2022-12-08T15:32:45.684Z,23.67
2022-12-08T15:35:13.058Z,17.33
2022-12-08T15:37:40.376Z,21.67
2022-12-08T15:40:07.120Z,17.00
2022-12-08T15:42:34.716Z,19.33
2022-12-08T15:45:02.112Z,20.00
2022-12-08T15:47:28.555Z,22.00
2022-12-08T15:49:54.998Z,17.50
2022-12-08T15:52:22.440Z,20.00
2022-12-08T15:54:49.803Z,21.00
2022-12-08T15:57:21.568Z,23.67
2022-12-08T15:59:56.388Z,20.50
2022-12-08T16:02:25.053Z,18.00
2022-12-08T16:07:39.140Z,20.00
2022-12-08T16:10:07.250Z,16.33
2022-12-08T16:13:26.907Z,19.00
2022-12-08T16:18:09.688Z,17.33
2022-12-08T16:21:06.200Z,15.67
2022-12-08T16:23:41.713Z,17.33
2022-12-08T16:26:24.018Z,16.00
2022-12-08T16:28:56.288Z,16.50
2022-12-08T16:31:23.374Z,17.50
2022-12-08T16:33:51.910Z,15.00
2022-12-08T16:36:19.156Z,14.00
2022-12-08T16:38:45.631Z,10.50
2022-12-08T16:41:12.873Z,12.00
2022-12-08T16:43:39.313Z,16.50
2022-12-08T16:46:06.590Z,12.33
2022-12-08T16:48:33.926Z,16.00
2022-12-08T16:51:01.241Z,17.00
2022-12-08T16:53:28.560Z,17.33
2022-12-08T16:55:54.967Z,17.00
2022-12-08T16:58:23.379Z,14.40
2022-12-08T17:00:50.913Z,12.00
2022-12-08T17:03:17.352Z,14.00
2022-12-08T17:05:46.537Z,10.00
2022-12-08T17:08:14.177Z,19.00
2022-12-08T17:10:40.753Z,15.00
2022-12-08T17:13:07.195Z,16.00
2022-12-08T17:15:33.596Z,13.00
2022-12-08T17:18:00.158Z,12.00
2022-12-08T17:20:27.410Z,14.33
2022-12-08T17:22:57.397Z,15.71
2022-12-08T17:25:25.697Z,11.60
2022-12-08T17:27:52.158Z,13.00
2022-12-08T17:30:18.702Z,13.50
2022-12-08T17:32:48.669Z,12.57
2022-12-08T17:35:17.117Z,13.40
2022-12-08T17:37:43.564Z,10.50
2022-12-08T17:40:11.871Z,10.40
2022-12-08T17:42:38.378Z,10.50
2022-12-08T17:45:07.362Z,15.00
2022-12-08T17:47:35.898Z,11.60
2022-12-08T17:50:02.602Z,12.00
2022-12-08T17:52:29.247Z,11.50
2022-12-08T17:54:55.749Z,10.50
2022-12-08T17:57:22.190Z,13.00
2022-12-08T17:59:50.480Z,11.40
2022-12-08T18:02:19.728Z,11.33
2022-12-08T18:04:46.206Z,11.50
2022-12-08T18:07:12.654Z,11.50
2022-12-08T18:09:40.978Z,12.80
2022-12-08T18:12:07.425Z,11.00
2022-12-08T18:14:33.891Z,11.00
2022-12-08T18:17:02.299Z,12.60
2022-12-08T18:19:30.768Z,12.00
2022-12-08T18:21:59.056Z,13.20
2022-12-08T18:24:27.417Z,12.40
2022-12-08T18:26:53.813Z,11.00
2022-12-08T18:29:20.286Z,12.50
2022-12-08T18:31:47.624Z,11.50
2022-12-08T18:34:14.060Z,11.00
2022-12-08T18:36:40.586Z,15.00
2022-12-08T18:39:10.785Z,12.00
2022-12-08T18:41:39.474Z,12.60
2022-12-08T18:44:09.456Z,12.71
2022-12-08T18:46:35.910Z,12.50
2022-12-08T18:49:03.286Z,18.00
2022-12-08T18:51:29.759Z,13.00
2022-12-08T18:53:57.104Z,16.00
2022-12-08T18:56:23.568Z,13.00
2022-12-08T18:58:51.272Z,12.00
2022-12-08T19:01:17.738Z,13.00
2022-12-08T19:04:12.161Z,11.00
2022-12-08T19:06:35.345Z,12.40
2022-12-08T19:09:02.719Z,12.00
2022-12-08T19:11:31.003Z,13.60
2022-12-08T19:13:57.518Z,14.00
2022-12-08T19:16:24.060Z,12.00
2022-12-08T19:18:50.583Z,12.50
2022-12-08T19:21:18.894Z,12.20
2022-12-08T19:23:45.326Z,12.00
2022-12-08T19:26:13.622Z,12.80
2022-12-08T19:28:40.847Z,13.33
2022-12-08T19:31:08.260Z,8.75
2022-12-08T19:33:37.475Z,9.00
2022-12-08T19:36:03.922Z,10.00
2022-12-08T19:38:30.331Z,8.00
2022-12-08T19:40:57.538Z,9.00
2022-12-08T19:43:23.981Z,9.00
2022-12-08T19:45:50.439Z,8.50
2022-12-08T19:48:16.945Z,10.00
2022-12-08T19:50:43.314Z,8.33
2022-12-08T19:53:09.773Z,7.67
2022-12-08T19:55:36.122Z,7.67
2022-12-08T19:58:02.650Z,9.33
2022-12-08T20:00:29.245Z,8.67
2022-12-08T20:02:55.696Z,7.50
2022-12-08T20:05:22.105Z,7.33
2022-12-08T20:07:48.542Z,7.67
2022-12-08T20:10:15.912Z,8.75
2022-12-08T20:12:42.300Z,7.67
2022-12-08T20:15:08.732Z,9.67
2022-12-08T20:17:35.150Z,11.00
2022-12-08T20:20:06.577Z,6.33
2022-12-08T20:22:33.686Z,9.00
2022-12-08T20:25:01.162Z,10.50
2022-12-08T20:27:27.731Z,10.00
2022-12-08T20:29:54.202Z,10.33
2022-12-08T20:32:20.672Z,10.00
2022-12-08T20:34:47.064Z,9.00
2022-12-08T20:37:13.436Z,6.67
2022-12-08T20:39:39.794Z,8.33
2022-12-08T20:42:07.037Z,14.33
2022-12-08T20:44:33.526Z,14.00
2022-12-08T21:00:10.443Z,11.33
2022-12-08T21:02:40.488Z,10.00
2022-12-08T21:05:10.797Z,8.75
2022-12-08T21:07:37.413Z,10.00
2022-12-08T21:10:07.107Z,12.17
2022-12-08T21:12:33.955Z,10.00
2022-12-08T21:15:00.372Z,8.67
2022-12-08T21:17:26.912Z,14.50
2022-12-08T21:19:53.691Z,11.50
2022-12-08T21:22:20.183Z,4.33
2022-12-08T21:24:47.547Z,10.00
2022-12-08T21:27:15.867Z,9.60
2022-12-08T21:29:44.258Z,10.40
2022-12-08T21:32:11.663Z,14.67
2022-12-08T21:37:33.792Z,17.00
2022-12-08T21:40:00.740Z,17.00
2022-12-08T21:42:33.903Z,14.67
2022-12-08T21:45:02.805Z,13.00
2022-12-08T21:47:32.142Z,10.67
2022-12-08T21:52:43.013Z,9.67
2022-12-08T21:55:09.503Z,12.00
2022-12-08T21:57:36.814Z,11.00
2022-12-08T22:00:03.478Z,9.00
2022-12-08T22:02:33.232Z,11.00
2022-12-08T22:07:47.104Z,12.50
2022-12-08T22:10:13.748Z,9.00
2022-12-08T22:12:40.323Z,11.00
2022-12-08T22:15:07.787Z,9.50
2022-12-08T22:17:34.604Z,11.00
2022-12-08T22:22:56.753Z,11.50
2022-12-08T22:25:23.353Z,11.50
2022-12-08T22:27:49.759Z,6.67
2022-12-08T22:30:16.307Z,7.00
2022-12-08T22:32:42.860Z,11.50
2022-12-08T22:37:54.427Z,8.25
2022-12-08T22:40:21.191Z,11.50
2022-12-08T22:42:48.478Z,11.00
2022-12-08T22:45:15.170Z,10.00
2022-12-08T22:47:41.573Z,9.50
2022-12-08T22:53:02.104Z,12.00
2022-12-08T22:55:30.543Z,16.80
2022-12-08T22:57:56.969Z,18.00
2022-12-08T23:00:23.439Z,22.00
2022-12-08T23:02:50.815Z,17.33
2022-12-08T23:08:02.330Z,14.00
2022-12-08T23:10:32.249Z,14.29
2022-12-08T23:13:03.541Z,12.50
2022-12-08T23:15:32.431Z,13.00
2022-12-08T23:17:58.892Z,7.00
2022-12-08T23:23:09.531Z,13.00
2022-12-08T23:25:36.071Z,11.00
2022-12-08T23:28:02.455Z,11.50
2022-12-08T23:30:31.636Z,12.67
2022-12-08T23:32:58.932Z,11.00
2022-12-08T23:38:23.106Z,7.00
2022-12-08T23:40:52.310Z,8.67
2022-12-08T23:43:18.829Z,14.50
2022-12-08T23:45:45.406Z,11.50
2022-12-08T23:48:12.763Z,10.50
2022-12-08T23:53:23.324Z,10.50
2022-12-08T23:55:49.756Z,11.00
2022-12-08T23:58:17.048Z,11.00
